sensor_id;sensor_type;location;lat;lon;timestamp;P1;durP1;ratioP1;P2;durP2;ratioP2
10315;SDS011;5203;48.976;8.306;2023-04-24T00:01:47;2.13;;;2.00;;
10315;SDS011;5203;48.976;8.306;2023-04-24T00:04:12;2.47;;;1.80;;
10315;SDS011;5203;48.976;8.306;2023-04-24T00:06:41;1.80;;;1.70;;
10315;SDS011;5203;48.976;8.306;2023-04-24T00:09:08;4.13;;;2.10;;
10315;SDS011;5203;48.976;8.306;2023-04-24T00:11:35;2.60;;;2.07;;
10315;SDS011;5203;48.976;8.306;2023-04-24T00:14:01;2.73;;;1.93;;
10315;SDS011;5203;48.976;8.306;2023-04-24T00:16:27;2.43;;;1.80;;
10315;SDS011;5203;48.976;8.306;2023-04-24T00:18:53;3.40;;;2.10;;
10315;SDS011;5203;48.976;8.306;2023-04-24T00:21:19;2.63;;;1.90;;
10315;SDS011;5203;48.976;8.306;2023-04-24T00:23:46;2.20;;;2.00;;
10315;SDS011;5203;48.976;8.306;2023-04-24T00:26:12;2.00;;;1.90;;
10315;SDS011;5203;48.976;8.306;2023-04-24T00:28:38;2.50;;;1.93;;
10315;SDS011;5203;48.976;8.306;2023-04-24T00:31:04;2.07;;;1.97;;
10315;SDS011;5203;48.976;8.306;2023-04-24T00:33:30;2.03;;;1.63;;
10315;SDS011;5203;48.976;8.306;2023-04-24T00:35:55;3.37;;;2.03;;
10315;SDS011;5203;48.976;8.306;2023-04-24T00:38:21;1.90;;;1.80;;
10315;SDS011;5203;48.976;8.306;2023-04-24T00:40:47;4.03;;;1.80;;
10315;SDS011;5203;48.976;8.306;2023-04-24T00:43:14;2.50;;;2.00;;
10315;SDS011;5203;48.976;8.306;2023-04-24T00:45:40;2.00;;;1.70;;
10315;SDS011;5203;48.976;8.306;2023-04-24T00:48:06;2.10;;;1.90;;
10315;SDS011;5203;48.976;8.306;2023-04-24T00:50:32;2.50;;;1.97;;
10315;SDS011;5203;48.976;8.306;2023-04-24T00:53:00;2.77;;;1.90;;
10315;SDS011;5203;48.976;8.306;2023-04-24T00:55:26;2.80;;;2.00;;
10315;SDS011;5203;48.976;8.306;2023-04-24T00:57:52;2.17;;;1.80;;
10315;SDS011;5203;48.976;8.306;2023-04-24T01:00:17;2.30;;;2.00;;
10315;SDS011;5203;48.976;8.306;2023-04-24T01:02:44;2.10;;;2.00;;
10315;SDS011;5203;48.976;8.306;2023-04-24T01:05:14;2.20;;;1.80;;
10315;SDS011;5203;48.976;8.306;2023-04-24T01:07:40;2.13;;;1.80;;
10315;SDS011;5203;48.976;8.306;2023-04-24T01:10:09;2.27;;;2.07;;
10315;SDS011;5203;48.976;8.306;2023-04-24T01:12:35;2.50;;;2.10;;
10315;SDS011;5203;48.976;8.306;2023-04-24T01:15:01;1.70;;;1.60;;
10315;SDS011;5203;48.976;8.306;2023-04-24T01:17:28;1.83;;;1.73;;
10315;SDS011;5203;48.976;8.306;2023-04-24T01:19:54;1.83;;;1.73;;
10315;SDS011;5203;48.976;8.306;2023-04-24T01:22:21;1.70;;;1.60;;
10315;SDS011;5203;48.976;8.306;2023-04-24T01:24:47;3.13;;;2.00;;
10315;SDS011;5203;48.976;8.306;2023-04-24T01:27:13;2.30;;;2.10;;
10315;SDS011;5203;48.976;8.306;2023-04-24T01:29:40;1.90;;;1.80;;
10315;SDS011;5203;48.976;8.306;2023-04-24T01:32:06;1.80;;;1.70;;
10315;SDS011;5203;48.976;8.306;2023-04-24T01:34:31;2.80;;;1.97;;
10315;SDS011;5203;48.976;8.306;2023-04-24T01:36:58;2.37;;;1.80;;
10315;SDS011;5203;48.976;8.306;2023-04-24T01:39:24;3.80;;;1.90;;
10315;SDS011;5203;48.976;8.306;2023-04-24T01:41:50;3.33;;;2.10;;
10315;SDS011;5203;48.976;8.306;2023-04-24T01:44:17;2.47;;;2.00;;
10315;SDS011;5203;48.976;8.306;2023-04-24T01:46:43;2.17;;;1.97;;
10315;SDS011;5203;48.976;8.306;2023-04-24T01:49:08;4.70;;;2.10;;
10315;SDS011;5203;48.976;8.306;2023-04-24T01:51:34;3.13;;;2.30;;
10315;SDS011;5203;48.976;8.306;2023-04-24T01:54:00;3.67;;;2.07;;
10315;SDS011;5203;48.976;8.306;2023-04-24T01:56:25;2.43;;;2.00;;
10315;SDS011;5203;48.976;8.306;2023-04-24T01:58:54;4.30;;;2.00;;
10315;SDS011;5203;48.976;8.306;2023-04-24T02:01:21;2.23;;;2.07;;
10315;SDS011;5203;48.976;8.306;2023-04-24T02:03:48;2.43;;;2.10;;
10315;SDS011;5203;48.976;8.306;2023-04-24T02:06:14;4.57;;;1.87;;
10315;SDS011;5203;48.976;8.306;2023-04-24T02:08:39;2.10;;;2.00;;
10315;SDS011;5203;48.976;8.306;2023-04-24T02:11:05;2.23;;;2.03;;
10315;SDS011;5203;48.976;8.306;2023-04-24T02:13:30;2.23;;;1.93;;
10315;SDS011;5203;48.976;8.306;2023-04-24T02:15:57;2.73;;;2.00;;
10315;SDS011;5203;48.976;8.306;2023-04-24T02:18:24;2.07;;;1.80;;
10315;SDS011;5203;48.976;8.306;2023-04-24T02:20:49;1.77;;;1.63;;
10315;SDS011;5203;48.976;8.306;2023-04-24T02:23:15;3.53;;;2.17;;
10315;SDS011;5203;48.976;8.306;2023-04-24T02:25:41;2.07;;;1.97;;
10315;SDS011;5203;48.976;8.306;2023-04-24T02:28:06;2.10;;;1.77;;
10315;SDS011;5203;48.976;8.306;2023-04-24T02:30:32;2.00;;;1.90;;
10315;SDS011;5203;48.976;8.306;2023-04-24T02:32:58;2.63;;;2.00;;
10315;SDS011;5203;48.976;8.306;2023-04-24T02:35:23;2.07;;;1.90;;
10315;SDS011;5203;48.976;8.306;2023-04-24T02:37:49;2.23;;;1.93;;
10315;SDS011;5203;48.976;8.306;2023-04-24T02:40:14;2.43;;;1.90;;
10315;SDS011;5203;48.976;8.306;2023-04-24T02:42:40;2.23;;;2.07;;
10315;SDS011;5203;48.976;8.306;2023-04-24T02:45:06;2.30;;;2.07;;
10315;SDS011;5203;48.976;8.306;2023-04-24T02:47:32;3.67;;;2.27;;
10315;SDS011;5203;48.976;8.306;2023-04-24T02:49:57;3.70;;;2.27;;
10315;SDS011;5203;48.976;8.306;2023-04-24T02:52:23;2.87;;;2.27;;
10315;SDS011;5203;48.976;8.306;2023-04-24T02:54:49;2.13;;;1.93;;
10315;SDS011;5203;48.976;8.306;2023-04-24T02:57:14;2.10;;;1.90;;
10315;SDS011;5203;48.976;8.306;2023-04-24T02:59:40;3.57;;;2.10;;
10315;SDS011;5203;48.976;8.306;2023-04-24T03:02:05;2.20;;;2.00;;
10315;SDS011;5203;48.976;8.306;2023-04-24T03:04:31;2.57;;;1.87;;
10315;SDS011;5203;48.976;8.306;2023-04-24T03:06:57;2.00;;;1.90;;
10315;SDS011;5203;48.976;8.306;2023-04-24T03:09:23;2.20;;;2.00;;
10315;SDS011;5203;48.976;8.306;2023-04-24T03:11:49;1.90;;;1.80;;
10315;SDS011;5203;48.976;8.306;2023-04-24T03:14:15;2.13;;;1.90;;
10315;SDS011;5203;48.976;8.306;2023-04-24T03:16:41;3.03;;;1.80;;
10315;SDS011;5203;48.976;8.306;2023-04-24T03:19:07;1.70;;;1.60;;
10315;SDS011;5203;48.976;8.306;2023-04-24T03:21:33;1.70;;;1.60;;
10315;SDS011;5203;48.976;8.306;2023-04-24T03:24:00;3.07;;;1.90;;
10315;SDS011;5203;48.976;8.306;2023-04-24T03:26:27;2.10;;;1.80;;
10315;SDS011;5203;48.976;8.306;2023-04-24T03:28:52;2.47;;;2.10;;
10315;SDS011;5203;48.976;8.306;2023-04-24T03:31:18;2.47;;;2.20;;
10315;SDS011;5203;48.976;8.306;2023-04-24T03:33:46;3.00;;;2.40;;
10315;SDS011;5203;48.976;8.306;2023-04-24T03:36:12;3.10;;;2.57;;
10315;SDS011;5203;48.976;8.306;2023-04-24T03:38:37;2.87;;;2.47;;
10315;SDS011;5203;48.976;8.306;2023-04-24T03:41:03;2.70;;;2.50;;
10315;SDS011;5203;48.976;8.306;2023-04-24T03:43:28;2.57;;;2.37;;
10315;SDS011;5203;48.976;8.306;2023-04-24T03:45:54;3.20;;;2.40;;
10315;SDS011;5203;48.976;8.306;2023-04-24T03:48:20;3.03;;;2.60;;
10315;SDS011;5203;48.976;8.306;2023-04-24T03:50:45;2.70;;;2.50;;
10315;SDS011;5203;48.976;8.306;2023-04-24T03:53:11;2.37;;;2.17;;
10315;SDS011;5203;48.976;8.306;2023-04-24T03:55:37;2.60;;;2.33;;
10315;SDS011;5203;48.976;8.306;2023-04-24T03:58:02;2.80;;;2.50;;
10315;SDS011;5203;48.976;8.306;2023-04-24T04:00:28;4.23;;;2.60;;
10315;SDS011;5203;48.976;8.306;2023-04-24T04:02:58;2.70;;;2.50;;
10315;SDS011;5203;48.976;8.306;2023-04-24T04:05:23;2.57;;;2.37;;
10315;SDS011;5203;48.976;8.306;2023-04-24T04:07:49;4.70;;;2.80;;
10315;SDS011;5203;48.976;8.306;2023-04-24T04:10:15;2.90;;;2.70;;
10315;SDS011;5203;48.976;8.306;2023-04-24T04:12:42;2.20;;;2.10;;
10315;SDS011;5203;48.976;8.306;2023-04-24T04:15:07;2.67;;;2.47;;
10315;SDS011;5203;48.976;8.306;2023-04-24T04:17:33;2.60;;;2.40;;
10315;SDS011;5203;48.976;8.306;2023-04-24T04:19:59;3.63;;;2.30;;
10315;SDS011;5203;48.976;8.306;2023-04-24T04:22:25;6.67;;;2.30;;
10315;SDS011;5203;48.976;8.306;2023-04-24T04:24:50;2.67;;;2.40;;
10315;SDS011;5203;48.976;8.306;2023-04-24T04:27:16;2.73;;;2.30;;
10315;SDS011;5203;48.976;8.306;2023-04-24T04:29:43;2.50;;;2.13;;
10315;SDS011;5203;48.976;8.306;2023-04-24T04:32:09;3.30;;;2.60;;
10315;SDS011;5203;48.976;8.306;2023-04-24T04:34:35;2.10;;;2.00;;
10315;SDS011;5203;48.976;8.306;2023-04-24T04:37:02;2.87;;;2.70;;
10315;SDS011;5203;48.976;8.306;2023-04-24T04:39:28;2.67;;;2.47;;
10315;SDS011;5203;48.976;8.306;2023-04-24T04:41:54;2.60;;;2.40;;
10315;SDS011;5203;48.976;8.306;2023-04-24T04:44:20;2.40;;;2.27;;
10315;SDS011;5203;48.976;8.306;2023-04-24T04:46:45;2.37;;;2.27;;
10315;SDS011;5203;48.976;8.306;2023-04-24T04:49:12;2.53;;;2.33;;
10315;SDS011;5203;48.976;8.306;2023-04-24T04:51:38;2.50;;;2.30;;
10315;SDS011;5203;48.976;8.306;2023-04-24T04:54:03;2.93;;;2.50;;
10315;SDS011;5203;48.976;8.306;2023-04-24T04:56:29;2.83;;;2.50;;
10315;SDS011;5203;48.976;8.306;2023-04-24T04:58:55;3.43;;;2.50;;
10315;SDS011;5203;48.976;8.306;2023-04-24T05:01:21;2.30;;;2.20;;
10315;SDS011;5203;48.976;8.306;2023-04-24T05:03:48;2.60;;;2.40;;
10315;SDS011;5203;48.976;8.306;2023-04-24T05:06:13;3.67;;;2.70;;
10315;SDS011;5203;48.976;8.306;2023-04-24T05:08:40;4.07;;;3.17;;
10315;SDS011;5203;48.976;8.306;2023-04-24T05:11:05;5.20;;;2.70;;
10315;SDS011;5203;48.976;8.306;2023-04-24T05:13:31;3.93;;;3.00;;
10315;SDS011;5203;48.976;8.306;2023-04-24T05:15:57;3.00;;;2.80;;
10315;SDS011;5203;48.976;8.306;2023-04-24T05:18:22;3.70;;;3.40;;
10315;SDS011;5203;48.976;8.306;2023-04-24T05:20:48;3.10;;;2.80;;
10315;SDS011;5203;48.976;8.306;2023-04-24T05:23:14;3.47;;;3.17;;
10315;SDS011;5203;48.976;8.306;2023-04-24T05:25:39;3.20;;;2.80;;
10315;SDS011;5203;48.976;8.306;2023-04-24T05:28:06;3.00;;;2.80;;
10315;SDS011;5203;48.976;8.306;2023-04-24T05:30:32;3.67;;;3.10;;
10315;SDS011;5203;48.976;8.306;2023-04-24T05:32:57;3.00;;;2.80;;
10315;SDS011;5203;48.976;8.306;2023-04-24T05:35:23;3.13;;;2.80;;
10315;SDS011;5203;48.976;8.306;2023-04-24T05:37:48;2.77;;;2.57;;
10315;SDS011;5203;48.976;8.306;2023-04-24T05:40:14;2.63;;;2.43;;
10315;SDS011;5203;48.976;8.306;2023-04-24T05:42:40;3.27;;;2.80;;
10315;SDS011;5203;48.976;8.306;2023-04-24T05:45:06;3.23;;;2.97;;
10315;SDS011;5203;48.976;8.306;2023-04-24T05:47:32;3.53;;;3.00;;
10315;SDS011;5203;48.976;8.306;2023-04-24T05:49:57;3.07;;;2.87;;
10315;SDS011;5203;48.976;8.306;2023-04-24T05:52:23;2.77;;;2.57;;
10315;SDS011;5203;48.976;8.306;2023-04-24T05:54:49;3.23;;;2.77;;
10315;SDS011;5203;48.976;8.306;2023-04-24T05:57:14;3.37;;;2.83;;
10315;SDS011;5203;48.976;8.306;2023-04-24T05:59:41;2.80;;;2.60;;
10315;SDS011;5203;48.976;8.306;2023-04-24T06:02:07;2.80;;;2.60;;
10315;SDS011;5203;48.976;8.306;2023-04-24T06:04:32;3.13;;;2.80;;
10315;SDS011;5203;48.976;8.306;2023-04-24T06:06:58;3.40;;;2.87;;
10315;SDS011;5203;48.976;8.306;2023-04-24T06:09:25;2.93;;;2.60;;
10315;SDS011;5203;48.976;8.306;2023-04-24T06:11:51;3.20;;;2.97;;
10315;SDS011;5203;48.976;8.306;2023-04-24T06:14:18;2.77;;;2.57;;
10315;SDS011;5203;48.976;8.306;2023-04-24T06:16:44;4.37;;;2.77;;
10315;SDS011;5203;48.976;8.306;2023-04-24T06:19:10;3.33;;;3.03;;
10315;SDS011;5203;48.976;8.306;2023-04-24T06:21:36;3.70;;;3.10;;
10315;SDS011;5203;48.976;8.306;2023-04-24T06:24:01;3.03;;;2.83;;
10315;SDS011;5203;48.976;8.306;2023-04-24T06:26:29;3.70;;;3.30;;
10315;SDS011;5203;48.976;8.306;2023-04-24T06:28:55;3.20;;;3.00;;
10315;SDS011;5203;48.976;8.306;2023-04-24T06:31:20;4.33;;;2.90;;
10315;SDS011;5203;48.976;8.306;2023-04-24T06:33:47;4.97;;;3.60;;
10315;SDS011;5203;48.976;8.306;2023-04-24T06:36:14;3.87;;;3.37;;
10315;SDS011;5203;48.976;8.306;2023-04-24T06:38:40;3.80;;;3.50;;
10315;SDS011;5203;48.976;8.306;2023-04-24T06:41:06;3.23;;;2.93;;
10315;SDS011;5203;48.976;8.306;2023-04-24T06:43:32;3.53;;;3.23;;
10315;SDS011;5203;48.976;8.306;2023-04-24T06:45:59;3.63;;;3.33;;
10315;SDS011;5203;48.976;8.306;2023-04-24T06:48:25;3.87;;;3.30;;
10315;SDS011;5203;48.976;8.306;2023-04-24T06:50:51;3.60;;;3.30;;
10315;SDS011;5203;48.976;8.306;2023-04-24T06:53:17;5.40;;;3.20;;
10315;SDS011;5203;48.976;8.306;2023-04-24T06:55:43;3.40;;;3.10;;
10315;SDS011;5203;48.976;8.306;2023-04-24T06:58:11;3.20;;;2.70;;
10315;SDS011;5203;48.976;8.306;2023-04-24T07:00:37;3.20;;;2.90;;
10315;SDS011;5203;48.976;8.306;2023-04-24T07:03:03;7.07;;;3.20;;
10315;SDS011;5203;48.976;8.306;2023-04-24T07:05:30;3.27;;;2.97;;
10315;SDS011;5203;48.976;8.306;2023-04-24T07:07:59;4.93;;;3.30;;
10315;SDS011;5203;48.976;8.306;2023-04-24T07:10:25;3.13;;;2.93;;
10315;SDS011;5203;48.976;8.306;2023-04-24T07:12:53;3.33;;;3.00;;
10315;SDS011;5203;48.976;8.306;2023-04-24T07:15:19;3.20;;;2.90;;
10315;SDS011;5203;48.976;8.306;2023-04-24T07:17:45;3.03;;;2.63;;
10315;SDS011;5203;48.976;8.306;2023-04-24T07:20:11;5.40;;;3.00;;
10315;SDS011;5203;48.976;8.306;2023-04-24T07:22:39;3.53;;;2.67;;
10315;SDS011;5203;48.976;8.306;2023-04-24T07:25:05;4.13;;;2.70;;
10315;SDS011;5203;48.976;8.306;2023-04-24T07:27:31;2.63;;;2.30;;
10315;SDS011;5203;48.976;8.306;2023-04-24T07:29:57;2.50;;;2.30;;
10315;SDS011;5203;48.976;8.306;2023-04-24T07:32:23;4.70;;;2.47;;
10315;SDS011;5203;48.976;8.306;2023-04-24T07:34:49;3.20;;;2.40;;
10315;SDS011;5203;48.976;8.306;2023-04-24T07:37:14;3.47;;;2.60;;
10315;SDS011;5203;48.976;8.306;2023-04-24T07:39:40;2.57;;;2.37;;
10315;SDS011;5203;48.976;8.306;2023-04-24T07:42:06;2.47;;;2.27;;
10315;SDS011;5203;48.976;8.306;2023-04-24T07:44:31;2.70;;;2.50;;
10315;SDS011;5203;48.976;8.306;2023-04-24T07:46:57;2.70;;;2.23;;
10315;SDS011;5203;48.976;8.306;2023-04-24T07:49:23;3.27;;;2.40;;
10315;SDS011;5203;48.976;8.306;2023-04-24T07:51:49;4.90;;;2.93;;
10315;SDS011;5203;48.976;8.306;2023-04-24T07:54:15;3.20;;;2.40;;
10315;SDS011;5203;48.976;8.306;2023-04-24T07:56:41;2.80;;;2.60;;
10315;SDS011;5203;48.976;8.306;2023-04-24T07:59:08;4.00;;;3.10;;
10315;SDS011;5203;48.976;8.306;2023-04-24T08:01:35;3.43;;;3.13;;
10315;SDS011;5203;48.976;8.306;2023-04-24T08:04:00;2.93;;;2.63;;
10315;SDS011;5203;48.976;8.306;2023-04-24T08:06:26;3.20;;;3.00;;
10315;SDS011;5203;48.976;8.306;2023-04-24T08:08:55;3.37;;;2.87;;
10315;SDS011;5203;48.976;8.306;2023-04-24T08:11:21;3.53;;;3.23;;
10315;SDS011;5203;48.976;8.306;2023-04-24T08:13:47;3.03;;;2.80;;
10315;SDS011;5203;48.976;8.306;2023-04-24T08:16:13;3.00;;;2.80;;
10315;SDS011;5203;48.976;8.306;2023-04-24T08:18:38;2.73;;;2.53;;
10315;SDS011;5203;48.976;8.306;2023-04-24T08:21:04;2.20;;;2.10;;
10315;SDS011;5203;48.976;8.306;2023-04-24T08:23:29;2.67;;;2.47;;
10315;SDS011;5203;48.976;8.306;2023-04-24T08:25:55;5.93;;;3.40;;
10315;SDS011;5203;48.976;8.306;2023-04-24T08:28:22;5.30;;;2.73;;
10315;SDS011;5203;48.976;8.306;2023-04-24T08:30:48;3.67;;;2.63;;
10315;SDS011;5203;48.976;8.306;2023-04-24T08:33:17;2.60;;;2.40;;
10315;SDS011;5203;48.976;8.306;2023-04-24T08:35:43;2.80;;;2.60;;
10315;SDS011;5203;48.976;8.306;2023-04-24T08:38:08;2.80;;;2.60;;
10315;SDS011;5203;48.976;8.306;2023-04-24T08:40:34;4.10;;;3.03;;
10315;SDS011;5203;48.976;8.306;2023-04-24T08:43:01;3.40;;;3.10;;
10315;SDS011;5203;48.976;8.306;2023-04-24T08:45:28;3.27;;;2.80;;
10315;SDS011;5203;48.976;8.306;2023-04-24T08:47:54;3.83;;;2.90;;
10315;SDS011;5203;48.976;8.306;2023-04-24T08:50:21;8.70;;;5.17;;
10315;SDS011;5203;48.976;8.306;2023-04-24T08:52:49;3.77;;;3.10;;
10315;SDS011;5203;48.976;8.306;2023-04-24T08:55:16;5.63;;;3.43;;
10315;SDS011;5203;48.976;8.306;2023-04-24T08:57:44;4.30;;;2.70;;
10315;SDS011;5203;48.976;8.306;2023-04-24T09:00:10;3.83;;;3.07;;
10315;SDS011;5203;48.976;8.306;2023-04-24T09:02:39;3.00;;;2.67;;
10315;SDS011;5203;48.976;8.306;2023-04-24T09:05:08;3.37;;;3.00;;
10315;SDS011;5203;48.976;8.306;2023-04-24T09:07:35;2.73;;;2.53;;
10315;SDS011;5203;48.976;8.306;2023-04-24T09:10:04;4.30;;;3.00;;
10315;SDS011;5203;48.976;8.306;2023-04-24T09:12:31;2.93;;;2.63;;
10315;SDS011;5203;48.976;8.306;2023-04-24T09:14:58;3.27;;;2.80;;
10315;SDS011;5203;48.976;8.306;2023-04-24T09:17:25;4.17;;;2.93;;
10315;SDS011;5203;48.976;8.306;2023-04-24T09:19:53;3.20;;;3.00;;
10315;SDS011;5203;48.976;8.306;2023-04-24T09:22:18;3.53;;;3.23;;
10315;SDS011;5203;48.976;8.306;2023-04-24T09:24:45;3.83;;;3.50;;
10315;SDS011;5203;48.976;8.306;2023-04-24T09:27:11;3.90;;;3.40;;
10315;SDS011;5203;48.976;8.306;2023-04-24T09:29:37;4.37;;;3.43;;
10315;SDS011;5203;48.976;8.306;2023-04-24T09:32:19;3.83;;;3.50;;
10315;SDS011;5203;48.976;8.306;2023-04-24T09:34:47;3.90;;;3.50;;
10315;SDS011;5203;48.976;8.306;2023-04-24T09:37:34;4.23;;;3.87;;
10315;SDS011;5203;48.976;8.306;2023-04-24T09:40:07;5.23;;;3.60;;
10315;SDS011;5203;48.976;8.306;2023-04-24T09:42:33;3.90;;;3.60;;
10315;SDS011;5203;48.976;8.306;2023-04-24T09:44:58;4.17;;;3.80;;
10315;SDS011;5203;48.976;8.306;2023-04-24T09:47:24;4.10;;;3.60;;
10315;SDS011;5203;48.976;8.306;2023-04-24T09:49:50;5.53;;;3.63;;
10315;SDS011;5203;48.976;8.306;2023-04-24T09:52:15;3.57;;;3.27;;
10315;SDS011;5203;48.976;8.306;2023-04-24T09:54:41;3.80;;;3.50;;
10315;SDS011;5203;48.976;8.306;2023-04-24T09:57:07;3.83;;;3.23;;
10315;SDS011;5203;48.976;8.306;2023-04-24T09:59:34;3.70;;;3.40;;
10315;SDS011;5203;48.976;8.306;2023-04-24T10:02:00;3.23;;;2.60;;
10315;SDS011;5203;48.976;8.306;2023-04-24T10:04:26;6.07;;;3.43;;
10315;SDS011;5203;48.976;8.306;2023-04-24T10:06:55;3.60;;;3.30;;
10315;SDS011;5203;48.976;8.306;2023-04-24T10:09:25;3.53;;;3.00;;
10315;SDS011;5203;48.976;8.306;2023-04-24T10:11:52;3.17;;;2.87;;
10315;SDS011;5203;48.976;8.306;2023-04-24T10:14:20;3.23;;;2.90;;
10315;SDS011;5203;48.976;8.306;2023-04-24T10:16:47;3.00;;;2.73;;
10315;SDS011;5203;48.976;8.306;2023-04-24T10:19:14;2.97;;;2.77;;
10315;SDS011;5203;48.976;8.306;2023-04-24T10:21:42;3.27;;;3.07;;
10315;SDS011;5203;48.976;8.306;2023-04-24T10:24:14;3.37;;;3.07;;
10315;SDS011;5203;48.976;8.306;2023-04-24T10:26:42;3.33;;;3.00;;
10315;SDS011;5203;48.976;8.306;2023-04-24T10:29:09;3.17;;;2.97;;
10315;SDS011;5203;48.976;8.306;2023-04-24T10:31:37;3.67;;;3.37;;
10315;SDS011;5203;48.976;8.306;2023-04-24T10:34:07;3.50;;;3.20;;
10315;SDS011;5203;48.976;8.306;2023-04-24T10:36:34;5.40;;;3.40;;
10315;SDS011;5203;48.976;8.306;2023-04-24T10:39:02;11.20;;;3.80;;
10315;SDS011;5203;48.976;8.306;2023-04-24T10:41:33;4.00;;;3.40;;
10315;SDS011;5203;48.976;8.306;2023-04-24T10:44:08;3.53;;;3.23;;
10315;SDS011;5203;48.976;8.306;2023-04-24T10:46:38;3.90;;;3.60;;
10315;SDS011;5203;48.976;8.306;2023-04-24T10:49:07;3.77;;;3.47;;
10315;SDS011;5203;48.976;8.306;2023-04-24T10:51:44;3.50;;;3.20;;
10315;SDS011;5203;48.976;8.306;2023-04-24T10:54:24;3.50;;;3.20;;
10315;SDS011;5203;48.976;8.306;2023-04-24T10:56:52;5.07;;;3.47;;
10315;SDS011;5203;48.976;8.306;2023-04-24T10:59:29;4.07;;;3.67;;
10315;SDS011;5203;48.976;8.306;2023-04-24T11:02:00;3.83;;;3.50;;
10315;SDS011;5203;48.976;8.306;2023-04-24T11:04:32;5.13;;;4.23;;
10315;SDS011;5203;48.976;8.306;2023-04-24T11:06:58;3.90;;;3.60;;
10315;SDS011;5203;48.976;8.306;2023-04-24T11:09:27;4.10;;;3.80;;
10315;SDS011;5203;48.976;8.306;2023-04-24T11:12:11;4.57;;;4.17;;
10315;SDS011;5203;48.976;8.306;2023-04-24T11:17:32;4.73;;;4.20;;
10315;SDS011;5203;48.976;8.306;2023-04-24T11:20:16;4.53;;;4.10;;
10315;SDS011;5203;48.976;8.306;2023-04-24T11:22:42;4.87;;;4.43;;
10315;SDS011;5203;48.976;8.306;2023-04-24T11:25:08;5.90;;;5.37;;
10315;SDS011;5203;48.976;8.306;2023-04-24T11:27:43;5.80;;;5.30;;
10315;SDS011;5203;48.976;8.306;2023-04-24T11:30:10;5.80;;;5.30;;
10315;SDS011;5203;48.976;8.306;2023-04-24T11:32:37;6.20;;;5.60;;
10315;SDS011;5203;48.976;8.306;2023-04-24T11:37:39;5.93;;;5.33;;
10315;SDS011;5203;48.976;8.306;2023-04-24T11:40:06;5.90;;;5.40;;
10315;SDS011;5203;48.976;8.306;2023-04-24T11:42:34;5.83;;;5.33;;
10315;SDS011;5203;48.976;8.306;2023-04-24T11:45:01;5.97;;;5.47;;
10315;SDS011;5203;48.976;8.306;2023-04-24T11:47:32;5.87;;;5.47;;
10315;SDS011;5203;48.976;8.306;2023-04-24T11:50:01;6.17;;;5.67;;
10315;SDS011;5203;48.976;8.306;2023-04-24T11:52:27;5.77;;;5.27;;
10315;SDS011;5203;48.976;8.306;2023-04-24T11:54:54;5.33;;;4.77;;
10315;SDS011;5203;48.976;8.306;2023-04-24T11:57:20;4.97;;;4.47;;
10315;SDS011;5203;48.976;8.306;2023-04-24T11:59:51;4.67;;;4.27;;
10315;SDS011;5203;48.976;8.306;2023-04-24T12:02:23;4.50;;;4.10;;
10315;SDS011;5203;48.976;8.306;2023-04-24T12:04:50;4.83;;;4.37;;
10315;SDS011;5203;48.976;8.306;2023-04-24T12:07:17;5.07;;;4.67;;
10315;SDS011;5203;48.976;8.306;2023-04-24T12:12:13;5.60;;;5.10;;
10315;SDS011;5203;48.976;8.306;2023-04-24T12:14:50;5.47;;;4.70;;
10315;SDS011;5203;48.976;8.306;2023-04-24T12:17:23;5.20;;;4.80;;
10315;SDS011;5203;48.976;8.306;2023-04-24T12:19:50;4.93;;;4.47;;
10315;SDS011;5203;48.976;8.306;2023-04-24T12:22:16;5.23;;;4.73;;
10315;SDS011;5203;48.976;8.306;2023-04-24T12:24:58;5.03;;;4.63;;
10315;SDS011;5203;48.976;8.306;2023-04-24T12:27:29;5.37;;;4.43;;
10315;SDS011;5203;48.976;8.306;2023-04-24T12:29:56;4.87;;;4.47;;
10315;SDS011;5203;48.976;8.306;2023-04-24T12:32:22;5.07;;;4.63;;
10315;SDS011;5203;48.976;8.306;2023-04-24T12:34:50;5.33;;;4.83;;
10315;SDS011;5203;48.976;8.306;2023-04-24T12:37:16;4.93;;;4.53;;
10315;SDS011;5203;48.976;8.306;2023-04-24T12:39:58;6.53;;;5.00;;
10315;SDS011;5203;48.976;8.306;2023-04-24T12:42:26;5.40;;;4.90;;
10315;SDS011;5203;48.976;8.306;2023-04-24T12:44:56;4.90;;;4.50;;
10315;SDS011;5203;48.976;8.306;2023-04-24T12:47:24;4.70;;;4.30;;
10315;SDS011;5203;48.976;8.306;2023-04-24T12:49:50;4.70;;;4.30;;
10315;SDS011;5203;48.976;8.306;2023-04-24T12:52:17;5.07;;;4.67;;
10315;SDS011;5203;48.976;8.306;2023-04-24T12:54:47;5.87;;;5.30;;
10315;SDS011;5203;48.976;8.306;2023-04-24T12:57:12;5.00;;;4.60;;
10315;SDS011;5203;48.976;8.306;2023-04-24T12:59:38;6.03;;;5.40;;
10315;SDS011;5203;48.976;8.306;2023-04-24T13:02:04;5.27;;;4.80;;
10315;SDS011;5203;48.976;8.306;2023-04-24T13:04:31;9.77;;;8.90;;
10315;SDS011;5203;48.976;8.306;2023-04-24T13:06:57;6.27;;;5.70;;
10315;SDS011;5203;48.976;8.306;2023-04-24T13:09:23;5.53;;;5.13;;
10315;SDS011;5203;48.976;8.306;2023-04-24T13:11:49;6.27;;;5.50;;
10315;SDS011;5203;48.976;8.306;2023-04-24T13:14:15;6.80;;;6.30;;
10315;SDS011;5203;48.976;8.306;2023-04-24T13:16:41;5.67;;;5.23;;
10315;SDS011;5203;48.976;8.306;2023-04-24T13:19:09;4.80;;;4.37;;
10315;SDS011;5203;48.976;8.306;2023-04-24T13:21:35;4.70;;;4.30;;
10315;SDS011;5203;48.976;8.306;2023-04-24T13:24:01;5.10;;;4.60;;
10315;SDS011;5203;48.976;8.306;2023-04-24T13:26:28;5.00;;;4.50;;
10315;SDS011;5203;48.976;8.306;2023-04-24T13:28:54;4.80;;;4.40;;
10315;SDS011;5203;48.976;8.306;2023-04-24T13:31:20;5.10;;;4.40;;
10315;SDS011;5203;48.976;8.306;2023-04-24T13:33:45;5.10;;;4.30;;
10315;SDS011;5203;48.976;8.306;2023-04-24T13:36:11;5.03;;;4.17;;
10315;SDS011;5203;48.976;8.306;2023-04-24T13:38:37;5.23;;;4.73;;
10315;SDS011;5203;48.976;8.306;2023-04-24T13:41:02;4.57;;;3.77;;
10315;SDS011;5203;48.976;8.306;2023-04-24T13:43:28;4.87;;;4.47;;
10315;SDS011;5203;48.976;8.306;2023-04-24T13:45:54;4.70;;;4.17;;
10315;SDS011;5203;48.976;8.306;2023-04-24T13:48:20;4.53;;;4.13;;
10315;SDS011;5203;48.976;8.306;2023-04-24T13:50:46;4.80;;;4.40;;
10315;SDS011;5203;48.976;8.306;2023-04-24T13:53:13;4.17;;;3.87;;
10315;SDS011;5203;48.976;8.306;2023-04-24T13:55:39;5.77;;;3.80;;
10315;SDS011;5203;48.976;8.306;2023-04-24T13:58:05;4.27;;;3.87;;
10315;SDS011;5203;48.976;8.306;2023-04-24T14:00:31;4.03;;;3.60;;
10315;SDS011;5203;48.976;8.306;2023-04-24T14:02:57;4.20;;;3.80;;
10315;SDS011;5203;48.976;8.306;2023-04-24T14:05:22;5.13;;;3.53;;
10315;SDS011;5203;48.976;8.306;2023-04-24T14:07:48;4.00;;;3.60;;
10315;SDS011;5203;48.976;8.306;2023-04-24T14:10:14;3.77;;;3.30;;
10315;SDS011;5203;48.976;8.306;2023-04-24T14:12:40;6.50;;;4.10;;
10315;SDS011;5203;48.976;8.306;2023-04-24T14:15:06;4.37;;;3.97;;
10315;SDS011;5203;48.976;8.306;2023-04-24T14:17:33;4.80;;;4.40;;
10315;SDS011;5203;48.976;8.306;2023-04-24T14:19:59;4.23;;;3.83;;
10315;SDS011;5203;48.976;8.306;2023-04-24T14:22:25;4.10;;;3.77;;
10315;SDS011;5203;48.976;8.306;2023-04-24T14:24:51;4.30;;;3.90;;
10315;SDS011;5203;48.976;8.306;2023-04-24T14:27:17;6.10;;;4.20;;
10315;SDS011;5203;48.976;8.306;2023-04-24T14:29:42;3.80;;;3.50;;
10315;SDS011;5203;48.976;8.306;2023-04-24T14:32:10;4.00;;;3.70;;
10315;SDS011;5203;48.976;8.306;2023-04-24T14:34:35;3.90;;;3.60;;
10315;SDS011;5203;48.976;8.306;2023-04-24T14:37:01;3.50;;;3.27;;
10315;SDS011;5203;48.976;8.306;2023-04-24T14:39:28;3.40;;;3.10;;
10315;SDS011;5203;48.976;8.306;2023-04-24T14:41:54;3.57;;;3.30;;
10315;SDS011;5203;48.976;8.306;2023-04-24T14:44:20;3.33;;;3.13;;
10315;SDS011;5203;48.976;8.306;2023-04-24T14:46:45;3.20;;;2.93;;
10315;SDS011;5203;48.976;8.306;2023-04-24T14:49:11;3.80;;;3.13;;
10315;SDS011;5203;48.976;8.306;2023-04-24T14:51:37;3.80;;;3.40;;
10315;SDS011;5203;48.976;8.306;2023-04-24T14:54:03;3.53;;;3.23;;
10315;SDS011;5203;48.976;8.306;2023-04-24T14:56:29;3.60;;;3.30;;
10315;SDS011;5203;48.976;8.306;2023-04-24T14:58:54;9.63;;;3.57;;
10315;SDS011;5203;48.976;8.306;2023-04-24T15:01:20;3.90;;;3.60;;
10315;SDS011;5203;48.976;8.306;2023-04-24T15:03:46;4.47;;;3.00;;
10315;SDS011;5203;48.976;8.306;2023-04-24T15:06:12;3.50;;;3.20;;